createdAt,value
2019-04-16T00:02:09.719Z,25.25
2019-04-16T00:04:36.994Z,24.18
2019-04-16T00:07:04.280Z,28.12
2019-04-16T00:09:31.340Z,26.80
2019-04-16T00:11:58.719Z,25.90
2019-04-16T00:14:25.789Z,25.57
2019-04-16T00:16:53.119Z,24.72
2019-04-16T00:19:20.439Z,27.25
2019-04-16T00:21:47.488Z,31.65
2019-04-16T00:24:18.192Z,24.82
2019-04-16T00:26:43.611Z,25.10
2019-04-16T00:29:11.010Z,29.10
2019-04-16T00:31:38.306Z,26.82
2019-04-16T00:34:05.632Z,28.60
2019-04-16T00:36:32.723Z,27.42
2019-04-16T00:39:00.119Z,24.55
2019-04-16T00:41:27.577Z,24.27
2019-04-16T00:43:54.947Z,30.20
2019-04-16T00:46:22.286Z,25.62
2019-04-16T00:48:49.386Z,28.17
2019-04-16T00:51:16.444Z,24.55
2019-04-16T00:53:43.490Z,28.10
2019-04-16T00:56:13.415Z,26.15
2019-04-16T00:58:40.006Z,27.80
2019-04-16T01:01:07.065Z,26.15
2019-04-16T01:03:34.404Z,28.47
2019-04-16T01:06:01.478Z,26.45
2019-04-16T01:08:28.509Z,28.85
2019-04-16T01:10:55.563Z,26.27
2019-04-16T01:13:24.511Z,26.37
2019-04-16T01:15:52.107Z,27.90
2019-04-16T01:18:19.159Z,27.37
2019-04-16T01:20:46.508Z,24.63
2019-04-16T01:23:17.549Z,26.95
2019-04-16T01:25:42.937Z,27.55
2019-04-16T01:28:10.072Z,23.60
2019-04-16T01:30:37.245Z,27.07
2019-04-16T01:33:04.249Z,29.23
2019-04-16T01:35:31.306Z,26.40
2019-04-16T01:37:59.608Z,30.88
2019-04-16T01:40:26.674Z,27.77
2019-04-16T01:42:54.713Z,28.57
2019-04-16T01:45:22.596Z,26.55
2019-04-16T01:47:49.951Z,26.00
2019-04-16T01:50:17.304Z,27.25
2019-04-16T01:52:47.347Z,29.32
2019-04-16T01:55:25.483Z,29.18
2019-04-16T01:57:49.825Z,29.05
2019-04-16T02:00:16.868Z,26.65
2019-04-16T02:02:46.338Z,28.62
2019-04-16T02:05:12.906Z,33.48
2019-04-16T02:07:40.261Z,27.93
2019-04-16T02:10:08.075Z,28.70
2019-04-16T02:12:35.487Z,29.18
2019-04-16T02:15:02.840Z,25.12
2019-04-16T02:17:31.216Z,28.95
2019-04-16T02:19:58.495Z,29.52
2019-04-16T02:22:25.824Z,30.25
2019-04-16T02:24:53.138Z,28.27
2019-04-16T02:27:20.191Z,30.82
2019-04-16T02:29:47.481Z,27.82
2019-04-16T02:32:14.538Z,28.87
2019-04-16T02:34:41.841Z,30.35
2019-04-16T02:37:09.119Z,25.97
2019-04-16T02:39:47.751Z,27.85
2019-04-16T02:42:05.163Z,26.70
2019-04-16T02:44:32.449Z,25.77
2019-04-16T02:47:05.375Z,26.05
2019-04-16T02:49:28.247Z,30.52
2019-04-16T02:51:55.298Z,27.40
2019-04-16T02:54:22.587Z,29.87
2019-04-16T02:56:52.080Z,28.40
2019-04-16T02:59:18.630Z,29.18
2019-04-16T03:01:45.670Z,25.25
2019-04-16T03:04:12.969Z,27.62
2019-04-16T03:06:40.009Z,27.90
2019-04-16T03:09:09.187Z,26.10
2019-04-16T03:11:36.057Z,28.00
2019-04-16T03:14:03.351Z,25.82
2019-04-16T03:16:30.390Z,26.75
2019-04-16T03:18:57.683Z,26.65
2019-04-16T03:21:27.411Z,25.65
2019-04-16T03:23:53.735Z,24.75
2019-04-16T03:26:21.781Z,26.55
2019-04-16T03:28:48.844Z,26.40
2019-04-16T03:31:22.509Z,26.60
2019-04-16T03:33:50.231Z,25.57
2019-04-16T03:36:14.855Z,27.17
2019-04-16T03:38:42.258Z,25.60
2019-04-16T03:41:09.276Z,26.45
2019-04-16T03:43:36.328Z,25.25
2019-04-16T03:46:03.368Z,31.10
2019-04-16T03:48:30.729Z,23.50
2019-04-16T03:51:00.551Z,28.57
2019-04-16T03:53:26.893Z,23.20
2019-04-16T03:55:54.600Z,27.52
2019-04-16T03:58:23.340Z,31.23
2019-04-16T04:00:50.384Z,24.18
2019-04-16T04:03:17.743Z,24.32
2019-04-16T04:05:44.784Z,25.75
2019-04-16T04:08:16.099Z,24.27
2019-04-16T04:10:41.226Z,25.57
2019-04-16T04:13:08.287Z,25.50
2019-04-16T04:15:35.626Z,25.32
2019-04-16T04:18:02.670Z,24.30
2019-04-16T04:20:29.736Z,23.65
2019-04-16T04:22:57.856Z,24.63
2019-04-16T04:25:25.029Z,24.15
2019-04-16T04:27:52.409Z,25.57
2019-04-16T04:30:19.756Z,23.38
2019-04-16T04:32:47.721Z,25.35
2019-04-16T04:35:20.070Z,24.37
2019-04-16T04:37:43.994Z,25.57
2019-04-16T04:40:12.786Z,26.68
2019-04-16T04:42:40.088Z,25.05
2019-04-16T04:45:09.043Z,24.50
2019-04-16T04:47:36.186Z,24.75
2019-04-16T04:50:04.379Z,25.60
2019-04-16T04:52:31.439Z,24.77
2019-04-16T04:54:58.749Z,24.80
2019-04-16T04:57:28.385Z,23.27
2019-04-16T04:59:54.552Z,23.12
2019-04-16T05:02:21.947Z,22.40
2019-04-16T05:04:49.607Z,20.15
2019-04-16T05:07:18.022Z,21.52
2019-04-16T05:09:45.080Z,32.63
2019-04-16T05:12:12.122Z,22.87
2019-04-16T05:14:39.178Z,21.42
2019-04-16T05:17:07.606Z,19.02
2019-04-16T05:19:34.787Z,20.52
2019-04-16T05:22:02.205Z,21.70
2019-04-16T05:24:30.009Z,25.10
2019-04-16T05:26:57.323Z,21.42
2019-04-16T05:29:24.373Z,22.77
2019-04-16T05:31:51.516Z,23.35
2019-04-16T05:34:18.878Z,20.55
2019-04-16T05:36:47.858Z,20.40
2019-04-16T05:39:15.450Z,19.73
2019-04-16T05:41:42.787Z,19.45
2019-04-16T05:44:09.833Z,22.65
2019-04-16T05:46:38.334Z,22.95
2019-04-16T05:49:05.530Z,23.27
2019-04-16T05:51:32.853Z,21.93
2019-04-16T05:53:59.892Z,20.75
2019-04-16T05:56:27.248Z,19.45
2019-04-16T05:58:54.289Z,20.70
2019-04-16T06:01:22.680Z,24.87
2019-04-16T06:03:52.819Z,20.45
2019-04-16T06:06:18.788Z,20.97
2019-04-16T06:08:46.144Z,19.67
2019-04-16T06:11:27.667Z,22.27
2019-04-16T06:13:44.498Z,25.05
2019-04-16T06:16:11.372Z,23.80
2019-04-16T06:18:38.743Z,21.27
2019-04-16T06:21:06.043Z,26.95
2019-04-16T06:23:33.162Z,21.97
2019-04-16T06:26:00.481Z,23.18
2019-04-16T06:28:27.851Z,23.18
2019-04-16T06:30:55.215Z,21.60
2019-04-16T06:33:22.568Z,21.95
2019-04-16T06:35:49.920Z,24.37
2019-04-16T06:38:17.503Z,23.10
2019-04-16T06:40:44.906Z,22.77
2019-04-16T06:43:12.312Z,23.40
2019-04-16T06:45:39.403Z,23.85
2019-04-16T06:48:06.700Z,21.52
2019-04-16T06:50:39.658Z,25.65
2019-04-16T06:53:02.505Z,22.85
2019-04-16T06:55:29.550Z,21.25
2019-04-16T06:57:57.654Z,21.55
2019-04-16T07:00:26.036Z,23.00
2019-04-16T07:03:02.172Z,21.12
2019-04-16T07:05:22.228Z,22.25
2019-04-16T07:07:49.541Z,20.72
2019-04-16T07:10:16.585Z,21.70
2019-04-16T07:12:43.678Z,18.80
2019-04-16T07:15:11.010Z,20.02
2019-04-16T07:17:40.513Z,21.45
2019-04-16T07:20:06.880Z,20.32
2019-04-16T07:22:34.489Z,20.08
2019-04-16T07:25:04.582Z,20.65
2019-04-16T07:27:34.266Z,20.48
2019-04-16T07:30:05.162Z,19.62
2019-04-16T07:32:30.046Z,21.48
2019-04-16T07:34:57.104Z,20.85
2019-04-16T07:37:24.447Z,19.57
2019-04-16T07:39:51.800Z,20.77
2019-04-16T07:43:47.021Z,21.45
2019-04-16T07:44:47.876Z,22.80
2019-04-16T07:47:19.737Z,21.10
2019-04-16T07:49:44.195Z,22.30
2019-04-16T07:52:12.293Z,21.27
2019-04-16T07:54:39.824Z,20.88
2019-04-16T07:57:07.180Z,21.62
2019-04-16T07:59:34.313Z,22.27
2019-04-16T08:02:02.605Z,23.18
2019-04-16T08:04:35.387Z,25.35
2019-04-16T08:06:59.003Z,25.15
2019-04-16T08:09:29.942Z,23.85
2019-04-16T08:11:56.060Z,23.50
2019-04-16T08:14:23.369Z,23.22
2019-04-16T08:16:50.424Z,24.47
2019-04-16T08:19:17.784Z,23.95
2019-04-16T08:21:45.132Z,23.52
2019-04-16T08:24:12.510Z,25.85
2019-04-16T08:26:41.649Z,23.25
2019-04-16T08:29:08.655Z,23.42
2019-04-16T08:31:36.009Z,22.82
2019-04-16T08:34:03.071Z,24.10
2019-04-16T08:36:30.115Z,25.55
2019-04-16T08:38:57.720Z,27.10
2019-04-16T08:41:25.101Z,25.30
2019-04-16T08:43:52.480Z,23.65
2019-04-16T08:46:19.806Z,26.00
2019-04-16T08:48:49.324Z,23.80
2019-04-16T08:51:29.376Z,23.32
2019-04-16T08:53:46.712Z,23.92
2019-04-16T08:56:13.970Z,23.07
2019-04-16T08:58:41.278Z,24.55
2019-04-16T09:01:08.571Z,26.23
2019-04-16T09:03:35.904Z,24.10
2019-04-16T09:06:04.307Z,22.62
2019-04-16T09:08:32.071Z,21.82
2019-04-16T09:11:00.246Z,24.98
2019-04-16T09:13:29.232Z,22.00
2019-04-16T09:15:56.593Z,21.77
2019-04-16T09:18:23.657Z,23.20
2019-04-16T09:20:50.699Z,26.70
2019-04-16T09:23:18.021Z,22.70
2019-04-16T09:25:46.551Z,24.35
2019-04-16T09:28:25.282Z,22.40
2019-04-16T09:30:42.801Z,24.72
2019-04-16T09:33:09.866Z,23.38
2019-04-16T09:35:37.277Z,22.58
2019-04-16T09:38:05.755Z,22.65
2019-04-16T09:40:33.106Z,22.67
2019-04-16T09:43:00.332Z,24.65
2019-04-16T09:45:27.403Z,22.70
2019-04-16T09:47:54.449Z,23.55
2019-04-16T09:50:21.795Z,22.02
2019-04-16T09:52:49.156Z,21.95
2019-04-16T09:55:18.874Z,21.02
2019-04-16T09:57:45.604Z,23.22
2019-04-16T10:00:13.014Z,22.70
2019-04-16T10:02:40.519Z,22.98
2019-04-16T10:05:07.896Z,24.63
2019-04-16T10:07:39.815Z,22.80
2019-04-16T10:10:04.019Z,21.62
2019-04-16T10:12:31.391Z,23.62
2019-04-16T10:14:59.516Z,22.07
2019-04-16T10:17:26.916Z,24.23
2019-04-16T10:19:54.297Z,21.60
2019-04-16T10:22:21.632Z,21.87
2019-04-16T10:24:48.701Z,22.73
2019-04-16T10:27:15.759Z,22.73
2019-04-16T10:29:43.082Z,22.60
2019-04-16T10:32:10.174Z,21.57
2019-04-16T10:34:37.258Z,22.00
2019-04-16T10:37:04.632Z,20.23
2019-04-16T10:39:31.760Z,20.08
2019-04-16T10:41:59.130Z,20.62
2019-04-16T10:44:26.518Z,20.15
2019-04-16T10:46:53.542Z,18.82
2019-04-16T10:49:20.617Z,20.02
2019-04-16T10:51:47.652Z,20.10
2019-04-16T10:54:15.081Z,18.77
2019-04-16T10:56:42.538Z,18.45
2019-04-16T10:59:09.587Z,20.68
2019-04-16T11:01:36.675Z,20.88
2019-04-16T11:04:04.854Z,19.70
2019-04-16T11:06:32.711Z,20.35
2019-04-16T11:08:59.733Z,20.72
2019-04-16T11:11:26.887Z,20.40
2019-04-16T11:14:00.015Z,20.02
2019-04-16T11:16:22.925Z,21.93
2019-04-16T11:18:50.265Z,19.20
2019-04-16T11:21:17.419Z,19.17
2019-04-16T11:23:44.830Z,17.55
2019-04-16T11:26:12.249Z,18.57
2019-04-16T11:28:39.301Z,18.77
2019-04-16T11:31:06.389Z,19.80
2019-04-16T11:33:33.414Z,17.87
2019-04-16T11:36:00.860Z,18.80
2019-04-16T11:38:28.211Z,18.70
2019-04-16T11:40:55.570Z,18.62
2019-04-16T11:43:22.928Z,18.00
2019-04-16T11:45:50.260Z,18.00
2019-04-16T11:48:17.607Z,15.50
2019-04-16T11:50:46.011Z,19.42
2019-04-16T11:53:13.034Z,18.80
2019-04-16T11:55:40.341Z,18.42
2019-04-16T11:58:07.369Z,16.70
2019-04-16T12:00:34.705Z,15.68
2019-04-16T12:03:01.836Z,16.00
2019-04-16T12:05:29.214Z,16.60
2019-04-16T12:07:56.281Z,18.02
2019-04-16T12:10:23.340Z,17.17
2019-04-16T12:12:50.659Z,16.93
2019-04-16T12:15:18.021Z,15.32
2019-04-16T12:17:45.116Z,17.73
2019-04-16T12:20:12.304Z,15.60
2019-04-16T12:22:39.755Z,16.10
2019-04-16T12:25:07.124Z,16.55
2019-04-16T12:27:34.173Z,16.52
2019-04-16T12:30:01.865Z,15.05
2019-04-16T12:32:29.709Z,16.27
2019-04-16T12:34:56.759Z,15.93
2019-04-16T12:37:24.092Z,14.18
2019-04-16T12:39:51.468Z,16.60
2019-04-16T12:45:09.157Z,17.45
2019-04-16T12:47:36.924Z,16.82
2019-04-16T12:50:03.975Z,16.32
2019-04-16T12:52:31.443Z,18.25
2019-04-16T12:54:59.702Z,14.20
2019-04-16T12:57:26.864Z,19.65
2019-04-16T12:59:54.987Z,15.13
2019-04-16T13:02:23.042Z,14.07
2019-04-16T13:04:50.542Z,16.17
2019-04-16T13:07:17.579Z,15.90
2019-04-16T13:09:44.916Z,17.73
2019-04-16T13:12:11.986Z,15.65
2019-04-16T13:14:39.307Z,14.68
2019-04-16T13:17:06.369Z,18.17
2019-04-16T13:19:33.418Z,42.08
2019-04-16T13:22:01.024Z,13.43
2019-04-16T13:24:28.544Z,12.37
2019-04-16T13:26:55.876Z,13.13
2019-04-16T13:29:29.021Z,13.40
2019-04-16T13:31:51.973Z,14.07
2019-04-16T13:34:19.469Z,14.83
2019-04-16T13:36:51.415Z,15.13
2019-04-16T13:39:17.683Z,13.95
2019-04-16T13:41:45.021Z,12.93
2019-04-16T13:44:12.075Z,12.95
2019-04-16T13:46:39.427Z,16.12
2019-04-16T13:49:06.850Z,14.28
2019-04-16T13:51:34.124Z,13.43
2019-04-16T13:54:02.020Z,12.23
2019-04-16T13:56:29.316Z,13.38
2019-04-16T13:58:59.033Z,12.47
2019-04-16T14:01:25.816Z,13.28
2019-04-16T14:03:56.097Z,13.25
2019-04-16T14:06:21.916Z,12.68
2019-04-16T14:08:49.082Z,12.82
2019-04-16T14:11:19.365Z,13.05
2019-04-16T14:13:46.441Z,12.33
2019-04-16T14:16:14.297Z,11.55
2019-04-16T14:18:41.370Z,11.75
2019-04-16T14:21:08.744Z,12.82
2019-04-16T14:23:35.807Z,12.58
2019-04-16T14:26:02.857Z,13.00
2019-04-16T14:28:34.264Z,11.20
2019-04-16T14:30:58.941Z,11.50
2019-04-16T14:33:26.339Z,12.25
2019-04-16T14:35:53.712Z,11.38
2019-04-16T14:38:20.757Z,9.85
2019-04-16T14:40:48.118Z,16.50
2019-04-16T14:43:15.171Z,18.30
2019-04-16T14:45:56.765Z,21.10
2019-04-16T14:48:11.249Z,19.82
2019-04-16T14:50:38.645Z,21.65
2019-04-16T14:53:06.006Z,22.50
2019-04-16T14:55:33.357Z,24.32
2019-04-16T14:58:00.406Z,24.30
2019-04-16T15:00:27.777Z,22.90
2019-04-16T15:02:55.117Z,23.20
2019-04-16T15:05:22.469Z,24.27
2019-04-16T15:07:49.778Z,27.22
2019-04-16T15:10:17.185Z,22.77
2019-04-16T15:12:44.233Z,29.40
2019-04-16T15:15:11.722Z,22.98
2019-04-16T15:17:40.575Z,23.80
2019-04-16T15:20:07.642Z,22.27
2019-04-16T15:22:34.688Z,23.55
2019-04-16T15:25:01.759Z,22.73
2019-04-16T15:27:31.627Z,22.15
2019-04-16T15:29:57.850Z,25.62
2019-04-16T15:32:25.527Z,24.30
2019-04-16T15:34:52.900Z,22.82
2019-04-16T15:37:22.752Z,26.27
2019-04-16T15:39:49.330Z,26.55
2019-04-16T15:42:17.742Z,26.65
2019-04-16T15:44:45.801Z,29.82
2019-04-16T15:47:14.036Z,26.50
2019-04-16T15:49:41.946Z,24.10
2019-04-16T15:52:10.385Z,26.55
2019-04-16T15:54:37.986Z,28.70
2019-04-16T15:57:08.017Z,26.62
2019-04-16T15:59:35.358Z,30.82
2019-04-16T16:02:02.665Z,24.82
2019-04-16T16:04:31.074Z,25.80
2019-04-16T16:06:58.429Z,22.90
2019-04-16T16:09:25.785Z,26.27
2019-04-16T16:11:52.851Z,25.80
2019-04-16T16:14:19.895Z,26.80
2019-04-16T16:16:47.757Z,22.50
2019-04-16T16:19:16.065Z,25.43
2019-04-16T16:21:43.482Z,23.85
2019-04-16T16:24:11.862Z,25.77
2019-04-16T16:26:39.218Z,23.00
2019-04-16T16:29:06.266Z,24.72
2019-04-16T16:31:35.587Z,25.35
2019-04-16T16:34:02.061Z,24.40
2019-04-16T16:36:29.190Z,28.70
2019-04-16T16:38:56.502Z,27.82
2019-04-16T16:41:23.566Z,25.10
2019-04-16T16:43:50.612Z,26.25
2019-04-16T16:46:17.956Z,26.57
2019-04-16T16:48:45.310Z,23.83
2019-04-16T16:51:14.834Z,24.75
2019-04-16T16:53:41.454Z,23.25
2019-04-16T16:56:08.816Z,23.20
2019-04-16T16:58:35.856Z,23.77
2019-04-16T17:01:03.248Z,21.95
2019-04-16T17:03:30.298Z,20.75
2019-04-16T17:05:57.835Z,22.37
2019-04-16T17:08:27.069Z,19.55
2019-04-16T17:10:54.066Z,16.35
2019-04-16T17:13:21.328Z,14.73
2019-04-16T17:15:48.791Z,11.38
2019-04-16T17:18:15.857Z,15.35
2019-04-16T17:20:43.178Z,12.85
2019-04-16T17:23:16.502Z,11.43
2019-04-16T17:25:40.565Z,12.05
2019-04-16T17:28:07.867Z,11.63
2019-04-16T17:30:35.158Z,12.05
2019-04-16T17:33:02.621Z,13.05
2019-04-16T17:35:29.993Z,13.05
2019-04-16T17:38:01.536Z,12.80
2019-04-16T17:40:26.112Z,14.03
2019-04-16T17:42:53.326Z,12.82
2019-04-16T17:45:20.823Z,11.55
2019-04-16T17:47:48.194Z,13.45
2019-04-16T17:50:15.552Z,13.18
2019-04-16T17:52:42.892Z,12.60
2019-04-16T17:55:10.187Z,12.47
2019-04-16T17:57:37.240Z,12.40
2019-04-16T18:00:05.653Z,13.58
2019-04-16T18:02:33.640Z,11.25
2019-04-16T18:05:00.685Z,15.53
2019-04-16T18:07:29.169Z,14.40
2019-04-16T18:10:00.416Z,11.43
2019-04-16T18:12:25.628Z,11.70
2019-04-16T18:14:52.998Z,12.50
2019-04-16T18:17:20.092Z,11.95
2019-04-16T18:19:48.509Z,15.50
2019-04-16T18:22:15.997Z,12.95
2019-04-16T18:24:43.094Z,12.18
2019-04-16T18:27:10.474Z,10.88
2019-04-16T18:29:37.825Z,13.20
2019-04-16T18:32:05.018Z,13.20
2019-04-16T18:34:33.191Z,12.63
2019-04-16T18:37:00.231Z,13.75
2019-04-16T18:39:27.613Z,12.45
2019-04-16T18:41:54.909Z,12.68
2019-04-16T18:44:22.047Z,12.55
2019-04-16T18:46:49.426Z,11.57
2019-04-16T18:49:17.404Z,10.63
2019-04-16T18:51:45.558Z,10.55
2019-04-16T18:54:15.020Z,11.28
2019-04-16T18:56:41.942Z,13.55
2019-04-16T18:59:09.237Z,10.20
2019-04-16T19:01:36.280Z,11.95
2019-04-16T19:04:03.689Z,9.85
2019-04-16T19:06:32.065Z,11.85
2019-04-16T19:08:59.124Z,12.18
2019-04-16T19:11:26.169Z,11.83
2019-04-16T19:13:53.701Z,12.00
2019-04-16T19:16:21.165Z,10.28
2019-04-16T19:18:48.280Z,10.58
2019-04-16T19:21:15.318Z,9.50
2019-04-16T19:23:43.529Z,8.35
2019-04-16T19:26:10.884Z,8.50
2019-04-16T19:28:39.627Z,10.25
2019-04-16T19:31:07.335Z,10.32
2019-04-16T19:33:38.102Z,11.95
2019-04-16T19:36:03.143Z,9.80
2019-04-16T19:38:30.626Z,12.00
2019-04-16T19:40:58.007Z,10.75
2019-04-16T19:43:28.024Z,10.90
2019-04-16T19:45:53.794Z,12.93
2019-04-16T19:48:34.740Z,14.30
2019-04-16T19:50:49.928Z,11.80
2019-04-16T19:53:16.973Z,12.82
2019-04-16T19:55:45.814Z,11.55
2019-04-16T19:58:12.779Z,13.80
2019-04-16T20:00:40.207Z,12.78
2019-04-16T20:03:07.247Z,13.22
2019-04-16T20:05:34.828Z,12.40
2019-04-16T20:08:02.468Z,10.75
2019-04-16T20:10:29.537Z,11.93
2019-04-16T20:12:59.200Z,12.63
2019-04-16T20:15:25.730Z,11.90
2019-04-16T20:17:53.201Z,11.68
2019-04-16T20:20:20.308Z,11.97
2019-04-16T20:22:47.651Z,10.53
2019-04-16T20:25:14.715Z,10.80
2019-04-16T20:27:41.739Z,10.55
2019-04-16T20:30:09.096Z,9.88
2019-04-16T20:32:36.538Z,9.85
2019-04-16T20:35:03.893Z,12.88
2019-04-16T20:37:38.418Z,11.85
2019-04-16T20:40:05.456Z,9.83
2019-04-16T20:42:32.594Z,10.60
2019-04-16T20:44:59.965Z,8.93
2019-04-16T20:47:27.103Z,10.75
2019-04-16T20:49:54.583Z,10.32
2019-04-16T20:52:21.936Z,13.43
2019-04-16T20:54:49.285Z,11.65
2019-04-16T20:57:16.346Z,12.45
2019-04-16T20:59:43.626Z,12.75
2019-04-16T21:02:10.940Z,14.95
2019-04-16T21:04:38.296Z,12.30
2019-04-16T21:07:05.653Z,14.28
2019-04-16T21:09:32.700Z,14.68
2019-04-16T21:11:59.760Z,14.63
2019-04-16T21:14:27.873Z,17.20
2019-04-16T21:16:54.933Z,16.80
2019-04-16T21:19:23.651Z,17.27
2019-04-16T21:21:55.081Z,17.48
2019-04-16T21:24:19.923Z,13.08
2019-04-16T21:26:50.990Z,14.15
2019-04-16T21:29:15.726Z,17.70
2019-04-16T21:31:43.150Z,14.43
2019-04-16T21:34:10.435Z,14.47
2019-04-16T21:36:37.973Z,14.75
2019-04-16T21:39:05.471Z,16.87
2019-04-16T21:41:34.483Z,15.58
2019-04-16T21:44:02.146Z,16.00
2019-04-16T21:46:29.582Z,15.83
2019-04-16T21:48:59.841Z,16.27
2019-04-16T21:51:25.685Z,14.73
2019-04-16T21:53:52.983Z,16.07
2019-04-16T21:56:20.335Z,15.93
2019-04-16T21:58:50.193Z,14.98
2019-04-16T22:01:17.497Z,19.90
2019-04-16T22:03:44.876Z,18.75
2019-04-16T22:06:11.927Z,18.55
2019-04-16T22:08:39.306Z,17.85
2019-04-16T22:11:08.583Z,19.17
2019-04-16T22:13:35.818Z,20.23
2019-04-16T22:16:03.167Z,20.08
2019-04-16T22:18:30.521Z,21.07
2019-04-16T22:20:57.877Z,20.50
2019-04-16T22:23:24.938Z,21.20
2019-04-16T22:25:52.281Z,23.40
2019-04-16T22:28:19.639Z,20.60
2019-04-16T22:30:51.230Z,18.70
2019-04-16T22:33:16.086Z,18.90
2019-04-16T22:35:43.441Z,19.15
2019-04-16T22:38:13.697Z,18.85
2019-04-16T22:40:39.239Z,17.95
2019-04-16T22:43:08.494Z,19.57
2019-04-16T22:45:36.700Z,19.62
2019-04-16T22:48:04.004Z,21.93
2019-04-16T22:50:31.049Z,21.40
2019-04-16T22:52:58.347Z,21.87
2019-04-16T22:55:25.801Z,21.20
2019-04-16T22:57:54.026Z,23.18
2019-04-16T23:00:21.073Z,21.93
2019-04-16T23:02:48.940Z,20.90
2019-04-16T23:05:16.353Z,21.37
2019-04-16T23:07:43.391Z,21.75
2019-04-16T23:10:10.528Z,19.30
2019-04-16T23:12:37.836Z,19.45
2019-04-16T23:15:05.224Z,23.20
2019-04-16T23:17:32.498Z,18.98
2019-04-16T23:19:59.554Z,21.57
2019-04-16T23:22:26.589Z,22.40
2019-04-16T23:24:55.338Z,19.87
2019-04-16T23:27:22.706Z,20.60
2019-04-16T23:29:50.066Z,20.15
2019-04-16T23:32:17.421Z,19.55
2019-04-16T23:34:44.724Z,20.02
2019-04-16T23:37:12.419Z,20.17
2019-04-16T23:39:39.827Z,22.48
2019-04-16T23:42:07.919Z,18.52
2019-04-16T23:44:35.339Z,22.75
2019-04-16T23:47:02.385Z,19.95
2019-04-16T23:49:29.727Z,17.10
2019-04-16T23:52:01.784Z,19.30
2019-04-16T23:54:25.848Z,18.95
2019-04-16T23:56:53.892Z,18.65
2019-04-16T23:59:21.175Z,24.27
